Time;durP1;ratioP1;P1;durP2;ratioP2;P2;SDS_P1;SDS_P2;PMS_P1;PMS_P2;Temp;Humidity;BMP_temperature;BMP_pressure;BME280_temperature;BME280_humidity;BME280_pressure;Samples;Min_cycle;Max_cycle;Signal;HPM_P1;HPM_P2
2022/04/29 00:01:33;;;;;;;6.50;1.67;;;;;;;;;;5029501;28;20120;-65
2022/04/29 00:03:59;;;;;;;7.60;0.93;;;;;;;;;;5061823;28;20049;-64
2022/04/29 00:06:26;;;;;;;7.13;1.00;;;;;;;;;;5044841;28;20586;-65
2022/04/29 00:08:52;;;;;;;9.63;1.13;;;;;;;;;;5061610;28;20049;-65
2022/04/29 00:11:18;;;;;;;6.38;1.15;;;;;;;;;;5044754;28;20048;-64
2022/04/29 00:13:45;;;;;;;6.45;1.23;;;;;;;;;;5060904;28;20404;-63
2022/04/29 00:16:11;;;;;;;7.53;1.40;;;;;;;;;;5061601;28;20391;-65
2022/04/29 00:18:37;;;;;;;8.85;1.92;;;;;;;;;;5044567;28;20037;-64
2022/04/29 00:21:04;;;;;;;7.45;1.05;;;;;;;;;;5044648;28;20045;-64
2022/04/29 00:23:31;;;;;;;8.38;1.00;;;;;;;;;;5060929;28;20041;-64
2022/04/29 00:25:57;;;;;;;9.13;1.02;;;;;;;;;;5044845;28;20546;-65
2022/04/29 00:28:23;;;;;;;7.15;1.70;;;;;;;;;;5061231;28;20045;-65
2022/04/29 00:30:49;;;;;;;4.60;0.63;;;;;;;;;;5061345;28;20041;-65
2022/04/29 00:33:16;;;;;;;7.63;0.85;;;;;;;;;;5043808;28;20045;-65
2022/04/29 00:35:42;;;;;;;10.75;1.13;;;;;;;;;;5044560;28;20450;-66
2022/04/29 00:38:10;;;;;;;6.60;1.00;;;;;;;;;;5060748;28;20033;-64
2022/04/29 00:40:36;;;;;;;5.68;1.13;;;;;;;;;;5060671;28;20592;-65
2022/04/29 00:43:02;;;;;;;6.78;0.80;;;;;;;;;;5060445;28;20076;-65
2022/04/29 00:45:28;;;;;;;6.60;1.08;;;;;;;;;;5028674;28;20049;-66
2022/04/29 00:47:55;;;;;;;6.15;0.90;;;;;;;;;;5060422;28;20568;-64
2022/04/29 00:50:23;;;;;;;6.57;1.02;;;;;;;;;;5060681;28;20045;-65
2022/04/29 00:52:50;;;;;;;7.35;1.65;;;;;;;;;;5060491;28;20499;-65
2022/04/29 00:55:16;;;;;;;6.85;1.10;;;;;;;;;;5060760;28;20116;-65
2022/04/29 00:57:45;;;;;;;4.63;0.80;;;;;;;;;;5026499;28;20507;-64
2022/04/29 01:00:14;;;;;;;5.13;0.80;;;;;;;;;;5060593;28;20080;-65
2022/04/29 01:02:41;;;;;;;9.70;1.08;;;;;;;;;;5027321;28;20041;-65
2022/04/29 01:05:11;;;;;;;5.95;0.50;;;;;;;;;;5027747;28;20044;-64
2022/04/29 01:07:38;;;;;;;11.05;1.08;;;;;;;;;;5060491;28;20124;-65
2022/04/29 01:10:06;;;;;;;10.43;1.10;;;;;;;;;;5060121;28;20037;-65
2022/04/29 01:12:34;;;;;;;10.43;1.38;;;;;;;;;;5027757;28;20526;-64
2022/04/29 01:15:03;;;;;;;9.07;1.50;;;;;;;;;;5060161;28;20120;-66
2022/04/29 01:17:30;;;;;;;5.60;0.55;;;;;;;;;;5060839;28;20044;-65
2022/04/29 01:19:56;;;;;;;6.65;1.02;;;;;;;;;;5026991;28;20048;-65
2022/04/29 01:22:22;;;;;;;8.38;0.88;;;;;;;;;;5059486;28;20073;-65
2022/04/29 01:24:50;;;;;;;6.40;0.77;;;;;;;;;;5027801;28;20044;-64
2022/04/29 01:27:16;;;;;;;3.05;0.60;;;;;;;;;;5059538;28;20574;-64
2022/04/29 01:29:43;;;;;;;4.90;0.68;;;;;;;;;;5059833;28;20124;-65
2022/04/29 01:32:09;;;;;;;5.35;0.60;;;;;;;;;;5028078;28;20591;-66
2022/04/29 01:34:36;;;;;;;8.43;0.98;;;;;;;;;;5059768;28;20042;-64
2022/04/29 01:37:02;;;;;;;5.20;1.00;;;;;;;;;;5026736;28;20052;-64
2022/04/29 01:39:28;;;;;;;4.28;0.70;;;;;;;;;;5059993;28;20069;-66
2022/04/29 01:41:54;;;;;;;6.30;1.02;;;;;;;;;;5059616;28;20479;-64
2022/04/29 01:44:21;;;;;;;4.25;0.73;;;;;;;;;;5059370;28;20045;-63
2022/04/29 01:46:47;;;;;;;5.15;1.40;;;;;;;;;;5043002;28;20492;-65
2022/04/29 01:49:15;;;;;;;9.07;1.40;;;;;;;;;;5028221;28;20052;-65
2022/04/29 01:51:42;;;;;;;6.97;1.23;;;;;;;;;;5026557;28;20590;-64
2022/04/29 01:54:11;;;;;;;8.43;1.33;;;;;;;;;;5059584;28;20064;-65
2022/04/29 01:56:40;;;;;;;5.80;0.95;;;;;;;;;;5059456;28;20047;-66
2022/04/29 01:59:06;;;;;;;4.95;1.00;;;;;;;;;;5059392;28;20045;-65
2022/04/29 02:01:32;;;;;;;7.25;1.05;;;;;;;;;;5042966;28;20048;-64
2022/04/29 02:03:58;;;;;;;6.55;1.35;;;;;;;;;;5042856;28;20099;-65
2022/04/29 02:06:25;;;;;;;7.47;1.45;;;;;;;;;;5059415;28;20049;-65
2022/04/29 02:08:51;;;;;;;7.40;1.17;;;;;;;;;;5027231;28;20116;-65
2022/04/29 02:11:17;;;;;;;7.13;1.00;;;;;;;;;;5059576;28;20045;-65
2022/04/29 02:13:47;;;;;;;4.47;0.73;;;;;;;;;;5042059;28;20049;-64
2022/04/29 02:16:14;;;;;;;4.90;1.10;;;;;;;;;;5025862;28;20046;-65
2022/04/29 02:18:40;;;;;;;6.80;1.13;;;;;;;;;;5059750;28;20495;-66
2022/04/29 02:21:07;;;;;;;3.50;0.82;;;;;;;;;;5027441;28;20076;-65
2022/04/29 02:23:33;;;;;;;5.20;1.00;;;;;;;;;;5060566;28;20041;-64
2022/04/29 02:26:00;;;;;;;8.88;1.13;;;;;;;;;;5063535;28;20967;-65
2022/04/29 02:28:31;;;;;;;4.22;0.98;;;;;;;;;;5029825;28;20073;-65
2022/04/29 02:31:00;;;;;;;7.10;0.88;;;;;;;;;;5063241;28;20080;-65
2022/04/29 02:33:27;;;;;;;4.05;0.95;;;;;;;;;;5031058;28;20039;-65
2022/04/29 02:35:53;;;;;;;8.48;1.27;;;;;;;;;;5044078;28;20044;-64
2022/04/29 02:38:19;;;;;;;8.02;1.08;;;;;;;;;;5031268;28;20596;-65
2022/04/29 02:40:45;;;;;;;4.15;1.20;;;;;;;;;;5062883;28;20041;-65
2022/04/29 02:43:12;;;;;;;7.13;1.00;;;;;;;;;;5030944;28;20041;-63
2022/04/29 02:45:38;;;;;;;9.52;1.52;;;;;;;;;;5029441;28;20046;-64
2022/04/29 02:48:05;;;;;;;5.47;1.58;;;;;;;;;;5031225;28;20530;-64
2022/04/29 02:50:31;;;;;;;5.22;1.73;;;;;;;;;;5030892;28;20403;-64
2022/04/29 02:52:57;;;;;;;6.18;1.80;;;;;;;;;;5030670;28;20056;-66
2022/04/29 02:55:23;;;;;;;7.80;1.65;;;;;;;;;;5030508;28;20030;-64
2022/04/29 02:57:49;;;;;;;11.10;2.25;;;;;;;;;;5013099;28;20056;-64
2022/04/29 03:00:16;;;;;;;7.38;1.88;;;;;;;;;;5062356;28;20111;-64
2022/04/29 03:02:42;;;;;;;10.43;2.15;;;;;;;;;;5046155;28;20049;-64
2022/04/29 03:05:08;;;;;;;7.65;2.30;;;;;;;;;;5062984;28;20102;-65
2022/04/29 03:07:34;;;;;;;8.40;1.92;;;;;;;;;;5030407;28;20055;-64
2022/04/29 03:10:00;;;;;;;11.52;2.22;;;;;;;;;;5030985;28;20072;-64
2022/04/29 03:12:26;;;;;;;6.93;1.95;;;;;;;;;;5031096;28;20034;-64
2022/04/29 03:15:15;;;;;;;5.55;1.58;;;;;;;;;;5030159;28;20585;-63
2022/04/29 03:20:24;;;;;;;8.20;2.03;;;;;;;;;;5029976;28;20047;-64
2022/04/29 03:22:51;;;;;;;7.97;1.98;;;;;;;;;;5029117;28;20265;-65
2022/04/29 03:25:17;;;;;;;8.30;2.00;;;;;;;;;;5045443;28;20068;-64
2022/04/29 03:27:43;;;;;;;5.80;1.60;;;;;;;;;;5061227;28;20038;-64
2022/04/29 03:30:09;;;;;;;5.93;1.50;;;;;;;;;;5030327;28;20041;-65
2022/04/29 03:32:35;;;;;;;7.90;1.90;;;;;;;;;;5062390;28;20037;-65
2022/04/29 03:35:01;;;;;;;9.38;2.33;;;;;;;;;;5029010;28;20499;-66
2022/04/29 03:37:27;;;;;;;6.72;2.10;;;;;;;;;;5045371;28;20128;-64
2022/04/29 03:39:54;;;;;;;5.13;2.20;;;;;;;;;;5045231;28;20246;-64
2022/04/29 03:42:21;;;;;;;8.32;2.55;;;;;;;;;;5030370;28;20045;-63
2022/04/29 03:44:52;;;;;;;5.40;1.90;;;;;;;;;;5061955;28;20558;-66
2022/04/29 03:47:19;;;;;;;5.70;1.85;;;;;;;;;;5029999;28;20292;-64
2022/04/29 03:49:45;;;;;;;7.75;2.20;;;;;;;;;;5028561;28;20083;-64
2022/04/29 03:52:11;;;;;;;9.57;2.00;;;;;;;;;;5061630;28;20530;-64
2022/04/29 03:54:37;;;;;;;7.68;2.08;;;;;;;;;;5061440;28;20491;-64
2022/04/29 03:57:09;;;;;;;9.93;2.72;;;;;;;;;;5029238;28;20099;-64
2022/04/29 03:59:41;;;;;;;9.65;2.40;;;;;;;;;;5061149;28;20159;-67
2022/04/29 04:02:07;;;;;;;8.65;2.40;;;;;;;;;;5026557;28;20049;-65
2022/04/29 04:04:33;;;;;;;5.25;2.20;;;;;;;;;;5029692;28;20044;-65
2022/04/29 04:07:02;;;;;;;4.55;1.95;;;;;;;;;;5061560;28;20052;-65
2022/04/29 04:09:28;;;;;;;8.43;1.45;;;;;;;;;;5027266;28;20037;-65
2022/04/29 04:11:55;;;;;;;8.05;2.08;;;;;;;;;;5029491;28;20037;-65
2022/04/29 04:14:21;;;;;;;7.47;2.50;;;;;;;;;;5028553;28;20092;-65
2022/04/29 04:16:47;;;;;;;10.18;1.90;;;;;;;;;;5045245;28;20088;-65
2022/04/29 04:19:14;;;;;;;5.20;1.30;;;;;;;;;;5044667;28;20494;-65
2022/04/29 04:21:40;;;;;;;7.03;0.70;;;;;;;;;;5011320;28;20045;-65
2022/04/29 04:24:07;;;;;;;8.02;1.10;;;;;;;;;;5061332;28;20124;-65
2022/04/29 04:26:33;;;;;;;6.43;1.85;;;;;;;;;;5029155;28;20038;-65
2022/04/29 04:28:59;;;;;;;6.88;1.63;;;;;;;;;;5044022;28;20045;-65
2022/04/29 04:31:26;;;;;;;8.90;1.73;;;;;;;;;;5029527;28;20387;-64
2022/04/29 04:33:52;;;;;;;7.95;1.70;;;;;;;;;;5027871;28;20045;-64
2022/04/29 04:36:18;;;;;;;5.90;1.73;;;;;;;;;;5043712;28;20045;-64
2022/04/29 04:38:47;;;;;;;5.90;1.10;;;;;;;;;;5061144;28;20128;-64
2022/04/29 04:41:15;;;;;;;6.97;0.82;;;;;;;;;;5028011;28;20537;-64
2022/04/29 04:43:41;;;;;;;5.25;1.17;;;;;;;;;;5044082;28;20136;-64
2022/04/29 04:46:08;;;;;;;7.20;1.10;;;;;;;;;;5028074;28;20163;-64
2022/04/29 04:48:35;;;;;;;8.20;1.35;;;;;;;;;;5044402;28;20081;-64
2022/04/29 04:51:03;;;;;;;5.97;0.93;;;;;;;;;;5060646;28;20056;-64
2022/04/29 04:53:30;;;;;;;8.40;0.93;;;;;;;;;;5043973;28;20045;-65
2022/04/29 04:55:56;;;;;;;3.63;0.47;;;;;;;;;;5028824;28;20088;-65
2022/04/29 04:58:22;;;;;;;4.55;0.75;;;;;;;;;;5060794;28;20344;-65
2022/04/29 05:00:50;;;;;;;6.32;0.82;;;;;;;;;;5028609;28;20464;-66
2022/04/29 05:03:16;;;;;;;4.75;0.60;;;;;;;;;;5026894;28;20102;-65
2022/04/29 05:05:42;;;;;;;4.82;0.80;;;;;;;;;;5043789;28;20049;-64
2022/04/29 05:08:08;;;;;;;6.13;0.82;;;;;;;;;;5043846;28;20087;-65
2022/04/29 05:10:34;;;;;;;7.72;0.77;;;;;;;;;;5060189;28;20315;-65
2022/04/29 05:13:00;;;;;;;3.88;0.68;;;;;;;;;;5043641;28;20526;-65
2022/04/29 05:15:26;;;;;;;5.47;0.52;;;;;;;;;;5060498;28;20091;-65
2022/04/29 05:17:52;;;;;;;6.15;0.70;;;;;;;;;;5043799;28;20095;-65
2022/04/29 05:20:18;;;;;;;8.35;0.98;;;;;;;;;;5060238;28;20033;-65
2022/04/29 05:22:46;;;;;;;5.05;0.88;;;;;;;;;;5058430;28;20042;-65
2022/04/29 05:25:12;;;;;;;3.35;0.60;;;;;;;;;;5026648;28;20115;-65
2022/04/29 05:27:38;;;;;;;5.25;0.60;;;;;;;;;;5059554;28;20094;-63
2022/04/29 05:30:05;;;;;;;4.38;0.57;;;;;;;;;;5042239;28;20037;-63
2022/04/29 05:32:32;;;;;;;5.22;0.70;;;;;;;;;;5059471;28;20068;-64
2022/04/29 05:34:59;;;;;;;4.88;0.57;;;;;;;;;;5027308;28;20087;-64
2022/04/29 05:37:25;;;;;;;4.13;0.35;;;;;;;;;;5059366;28;20041;-65
2022/04/29 05:42:36;;;;;;;3.50;0.50;;;;;;;;;;5059195;28;20095;-65
2022/04/29 05:45:02;;;;;;;4.93;0.60;;;;;;;;;;5026747;28;20033;-65
2022/04/29 05:47:28;;;;;;;4.40;0.50;;;;;;;;;;5024767;28;20415;-64
2022/04/29 05:49:54;;;;;;;2.03;0.40;;;;;;;;;;5059158;28;20057;-64
2022/04/29 05:52:20;;;;;;;4.03;0.57;;;;;;;;;;5027007;28;20492;-65
2022/04/29 05:54:46;;;;;;;2.58;0.35;;;;;;;;;;5042823;28;20037;-65
2022/04/29 05:57:12;;;;;;;3.53;0.60;;;;;;;;;;5026340;28;20045;-64
2022/04/29 05:59:39;;;;;;;4.40;0.35;;;;;;;;;;5059340;28;20038;-64
2022/04/29 06:02:05;;;;;;;5.55;0.40;;;;;;;;;;5024876;28;20043;-64
2022/04/29 06:04:31;;;;;;;7.88;0.50;;;;;;;;;;5025479;28;20045;-65
2022/04/29 06:07:02;;;;;;;4.95;0.63;;;;;;;;;;5026763;28;20506;-65
2022/04/29 06:09:28;;;;;;;4.38;0.52;;;;;;;;;;5008762;28;20056;-64
2022/04/29 06:12:00;;;;;;;3.47;0.50;;;;;;;;;;5041092;28;20040;-64
2022/04/29 06:14:26;;;;;;;1.95;0.40;;;;;;;;;;5057437;28;20550;-65
2022/04/29 06:16:52;;;;;;;5.32;0.40;;;;;;;;;;5060036;28;20486;-65
2022/04/29 06:19:18;;;;;;;3.58;0.38;;;;;;;;;;5059850;28;20037;-65
2022/04/29 06:21:44;;;;;;;5.75;0.68;;;;;;;;;;5042704;28;20051;-64
2022/04/29 06:24:10;;;;;;;2.83;0.35;;;;;;;;;;5026418;28;20041;-65
2022/04/29 06:26:36;;;;;;;3.28;0.30;;;;;;;;;;5060331;28;20060;-65
2022/04/29 06:29:04;;;;;;;6.78;0.60;;;;;;;;;;5027274;28;20034;-65
2022/04/29 06:31:30;;;;;;;2.95;0.40;;;;;;;;;;5059050;28;20132;-65
2022/04/29 06:33:56;;;;;;;4.97;0.40;;;;;;;;;;5058346;28;20068;-65
2022/04/29 06:36:22;;;;;;;4.90;0.50;;;;;;;;;;5007277;28;20444;-65
2022/04/29 06:38:48;;;;;;;7.07;0.50;;;;;;;;;;5027506;28;20041;-66
2022/04/29 06:41:15;;;;;;;3.30;0.35;;;;;;;;;;5027727;28;20036;-65
2022/04/29 06:43:41;;;;;;;2.20;0.40;;;;;;;;;;5027024;28;20037;-65
2022/04/29 06:46:09;;;;;;;4.60;0.40;;;;;;;;;;5043204;28;20104;-64
2022/04/29 06:48:35;;;;;;;6.60;0.57;;;;;;;;;;5042199;28;20515;-65
2022/04/29 06:51:01;;;;;;;3.70;0.40;;;;;;;;;;5058732;28;20095;-65
2022/04/29 06:53:27;;;;;;;3.53;0.30;;;;;;;;;;5058400;28;20068;-65
2022/04/29 06:55:54;;;;;;;2.67;0.30;;;;;;;;;;5057909;28;20045;-65
2022/04/29 06:58:20;;;;;;;2.47;0.50;;;;;;;;;;5023732;28;20116;-65
2022/04/29 07:00:47;;;;;;;4.25;0.40;;;;;;;;;;5024335;28;20136;-65
2022/04/29 07:03:13;;;;;;;7.47;0.60;;;;;;;;;;5057524;28;20041;-65
2022/04/29 07:05:39;;;;;;;3.40;0.40;;;;;;;;;;5041250;28;20038;-66
2022/04/29 07:08:06;;;;;;;2.25;0.30;;;;;;;;;;5025144;28;20121;-66
2022/04/29 07:10:32;;;;;;;3.13;0.57;;;;;;;;;;5044848;28;20048;-64
2022/04/29 07:13:03;;;;;;;2.42;0.30;;;;;;;;;;5061310;28;20488;-64
2022/04/29 07:15:29;;;;;;;2.72;0.40;;;;;;;;;;5029199;28;20037;-65
2022/04/29 07:17:55;;;;;;;5.55;0.35;;;;;;;;;;5045089;28;20382;-64
2022/04/29 07:20:21;;;;;;;7.13;0.30;;;;;;;;;;5061163;28;20049;-65
2022/04/29 07:22:47;;;;;;;4.50;0.50;;;;;;;;;;5060525;28;20029;-65
2022/04/29 07:25:14;;;;;;;7.85;0.40;;;;;;;;;;5040307;28;20052;-66
2022/04/29 07:27:40;;;;;;;4.63;0.40;;;;;;;;;;5045283;28;21229;-65
2022/04/29 07:30:08;;;;;;;2.53;0.30;;;;;;;;;;5046247;28;20044;-65
2022/04/29 07:32:34;;;;;;;4.80;0.50;;;;;;;;;;5062855;28;20037;-65
2022/04/29 07:43:21;;;;;;;5.35;0.55;;;;;;;;;;5028994;28;20068;-65
2022/04/29 07:45:51;;;;;;;7.57;0.60;;;;;;;;;;5029301;28;20502;-66
2022/04/29 07:48:18;;;;;;;5.55;0.73;;;;;;;;;;5046044;28;20053;-65
2022/04/29 07:50:45;;;;;;;4.20;0.30;;;;;;;;;;5045771;28;20033;-65
2022/04/29 07:53:11;;;;;;;2.17;0.30;;;;;;;;;;5062133;28;20033;-65
2022/04/29 07:55:39;;;;;;;6.20;0.40;;;;;;;;;;5030165;28;20491;-65
2022/04/29 07:58:05;;;;;;;3.35;0.35;;;;;;;;;;5061779;28;20048;-66
2022/04/29 08:00:37;;;;;;;5.80;0.73;;;;;;;;;;5062472;28;20075;-66
2022/04/29 08:03:04;;;;;;;6.55;0.40;;;;;;;;;;5030651;28;20124;-65
2022/04/29 08:05:30;;;;;;;5.68;0.52;;;;;;;;;;5062032;28;20439;-65
2022/04/29 08:07:59;;;;;;;4.03;0.40;;;;;;;;;;5030212;28;20141;-65
2022/04/29 08:10:32;;;;;;;4.18;0.30;;;;;;;;;;5062167;28;20065;-65
2022/04/29 08:12:59;;;;;;;;;;;;;;;;;;5062243;28;20052;-65
2022/04/29 08:15:29;;;;;;;6.47;0.70;;;;;;;;;;5044628;28;19921;-65
2022/04/29 08:17:57;;;;;;;5.47;0.90;;;;;;;;;;5028365;28;20041;-65
2022/04/29 08:20:23;;;;;;;8.35;0.50;;;;;;;;;;5060553;28;20045;-64
2022/04/29 08:22:49;;;;;;;4.78;0.50;;;;;;;;;;5061760;28;20124;-65
2022/04/29 08:25:18;;;;;;;4.90;0.57;;;;;;;;;;5029653;28;20095;-65
2022/04/29 08:27:44;;;;;;;6.43;0.50;;;;;;;;;;5061153;28;20052;-65
2022/04/29 08:30:10;;;;;;;5.47;1.33;;;;;;;;;;5029220;28;20079;-65
2022/04/29 08:32:37;;;;;;;5.10;0.65;;;;;;;;;;5045014;28;20594;-64
2022/04/29 08:35:03;;;;;;;5.07;0.40;;;;;;;;;;5044701;28;20565;-65
2022/04/29 08:37:29;;;;;;;5.50;0.50;;;;;;;;;;5029376;28;20083;-64
2022/04/29 08:39:55;;;;;;;7.22;0.63;;;;;;;;;;5044483;28;20728;-65
2022/04/29 08:42:24;;;;;;;6.13;0.80;;;;;;;;;;5027750;28;20368;-65
2022/04/29 08:44:50;;;;;;;5.70;0.70;;;;;;;;;;5029390;28;20056;-65
2022/04/29 08:47:17;;;;;;;4.47;0.50;;;;;;;;;;5028926;28;20103;-65
2022/04/29 08:49:44;;;;;;;6.22;0.40;;;;;;;;;;5027562;28;20175;-65
2022/04/29 08:52:11;;;;;;;8.02;0.80;;;;;;;;;;5061572;28;20045;-65
2022/04/29 09:00:08;;;;;;;5.45;0.80;;;;;;;;;;5027525;28;20049;-64
2022/04/29 09:02:39;;;;;;;4.60;0.60;;;;;;;;;;5029241;28;20037;-65
2022/04/29 09:05:07;;;;;;;5.57;0.80;;;;;;;;;;5028613;28;20056;-65
2022/04/29 09:07:55;;;;;;;4.07;0.57;;;;;;;;;;5043866;28;20523;-65
2022/04/29 09:10:22;;;;;;;2.85;0.50;;;;;;;;;;5060003;28;20491;-66
2022/04/29 09:12:49;;;;;;;3.47;0.70;;;;;;;;;;5011391;28;20045;-65
2022/04/29 09:15:15;;;;;;;3.22;0.70;;;;;;;;;;5026961;28;20116;-64
2022/04/29 09:17:46;;;;;;;6.63;0.90;;;;;;;;;;5029971;28;20041;-64
2022/04/29 09:20:22;;;;;;;4.40;0.70;;;;;;;;;;5060346;28;20124;-65
2022/04/29 09:22:49;;;;;;;5.85;0.68;;;;;;;;;;5025593;28;20432;-65
2022/04/29 09:25:15;;;;;;;4.60;0.60;;;;;;;;;;5059909;28;20077;-65
2022/04/29 09:27:54;;;;;;;3.42;0.70;;;;;;;;;;5043934;28;20657;-65
2022/04/29 09:30:33;;;;;;;4.93;1.08;;;;;;;;;;5043055;28;20091;-65
2022/04/29 09:32:59;;;;;;;4.18;0.65;;;;;;;;;;5025383;28;20120;-65
2022/04/29 09:35:39;;;;;;;2.50;0.77;;;;;;;;;;5060025;28;20045;-66
2022/04/29 09:40:50;;;;;;;3.40;0.80;;;;;;;;;;5026648;28;20051;-66
2022/04/29 09:43:16;;;;;;;6.68;1.55;;;;;;;;;;5059944;28;20484;-64
2022/04/29 09:45:42;;;;;;;3.63;1.52;;;;;;;;;;5027888;28;20128;-66
2022/04/29 09:48:09;;;;;;;4.85;0.77;;;;;;;;;;5028001;28;20535;-64
2022/04/29 09:50:44;;;;;;;5.65;0.60;;;;;;;;;;5060140;28;20045;-65
2022/04/29 09:53:18;;;;;;;4.93;0.63;;;;;;;;;;5027831;28;20694;-65
2022/04/29 09:56:04;;;;;;;5.60;0.80;;;;;;;;;;5024236;28;20500;-65
2022/04/29 09:58:31;;;;;;;4.45;0.70;;;;;;;;;;5059704;28;20091;-66
2022/04/29 10:00:58;;;;;;;6.38;1.08;;;;;;;;;;5059822;28;20360;-66
2022/04/29 10:03:24;;;;;;;4.95;0.65;;;;;;;;;;5042658;28;20496;-65
2022/04/29 10:05:51;;;;;;;3.45;0.70;;;;;;;;;;5026497;28;20141;-66
2022/04/29 10:08:18;;;;;;;3.25;0.85;;;;;;;;;;5026112;28;20052;-65
2022/04/29 10:10:46;;;;;;;3.78;0.60;;;;;;;;;;5059482;28;20040;-66
2022/04/29 10:13:12;;;;;;;6.50;0.80;;;;;;;;;;5059687;28;20041;-66
2022/04/29 10:15:39;;;;;;;5.30;0.82;;;;;;;;;;5058564;28;20448;-65
2022/04/29 10:23:39;;;;;;;4.63;0.50;;;;;;;;;;5057386;28;20077;-65
2022/04/29 10:26:05;;;;;;;3.80;0.57;;;;;;;;;;5059793;28;20073;-65
2022/04/29 10:28:31;;;;;;;4.85;0.57;;;;;;;;;;5060277;28;20049;-65
2022/04/29 10:31:01;;;;;;;4.25;0.90;;;;;;;;;;5027425;28;20042;-65
2022/04/29 10:33:28;;;;;;;6.45;1.00;;;;;;;;;;5027625;28;20042;-65
2022/04/29 10:35:56;;;;;;;5.63;0.70;;;;;;;;;;5026451;28;20487;-64
2022/04/29 10:38:30;;;;;;;2.63;0.57;;;;;;;;;;5043179;28;20056;-66
2022/04/29 10:41:16;;;;;;;5.18;1.00;;;;;;;;;;5059534;28;20487;-64
2022/04/29 10:43:52;;;;;;;5.53;1.73;;;;;;;;;;5026243;28;20049;-65
2022/04/29 10:46:30;;;;;;;3.03;0.80;;;;;;;;;;5063027;28;20092;-65
2022/04/29 10:48:57;;;;;;;4.15;0.70;;;;;;;;;;5063416;28;20045;-66
2022/04/29 10:51:26;;;;;;;4.68;0.80;;;;;;;;;;5031098;28;20056;-65
2022/04/29 10:53:57;;;;;;;4.93;0.70;;;;;;;;;;5030063;28;20136;-65
2022/04/29 10:56:33;;;;;;;2.28;0.43;;;;;;;;;;5029876;28;20522;-65
2022/04/29 10:59:30;;;;;;;5.05;0.60;;;;;;;;;;5062844;28;20037;-64
2022/04/29 11:02:06;;;;;;;2.30;0.40;;;;;;;;;;5029270;28;20052;-66
2022/04/29 11:04:32;;;;;;;6.25;0.57;;;;;;;;;;5031317;28;20487;-65
2022/04/29 11:06:58;;;;;;;3.50;0.50;;;;;;;;;;5030924;28;20056;-64
2022/04/29 11:09:34;;;;;;;4.30;0.60;;;;;;;;;;5031319;28;20046;-64
2022/04/29 11:12:00;;;;;;;6.10;0.70;;;;;;;;;;5030988;28;20121;-65
2022/04/29 11:14:27;;;;;;;3.83;0.50;;;;;;;;;;5046265;28;20052;-65
2022/04/29 11:16:58;;;;;;;3.35;0.60;;;;;;;;;;5046412;28;20049;-65
2022/04/29 11:19:26;;;;;;;4.78;0.80;;;;;;;;;;5030726;28;20041;-65
2022/04/29 11:24:45;;;;;;;4.15;0.60;;;;;;;;;;5029729;28;20119;-63
2022/04/29 11:27:11;;;;;;;3.80;0.50;;;;;;;;;;5046044;28;20045;-64
2022/04/29 11:29:44;;;;;;;3.60;0.40;;;;;;;;;;5045825;28;20087;-64
2022/04/29 11:32:11;;;;;;;3.55;0.73;;;;;;;;;;5062946;28;20495;-65
2022/04/29 11:34:53;;;;;;;3.47;0.50;;;;;;;;;;5062647;28;20045;-64
2022/04/29 11:37:26;;;;;;;3.88;0.52;;;;;;;;;;5045523;28;20511;-65
2022/04/29 11:39:52;;;;;;;5.65;0.70;;;;;;;;;;5062070;28;20072;-65
2022/04/29 11:42:19;;;;;;;5.40;0.60;;;;;;;;;;5030475;28;20045;-64
2022/04/29 11:44:45;;;;;;;5.05;0.82;;;;;;;;;;5045870;28;20479;-65
2022/04/29 11:47:16;;;;;;;5.68;0.65;;;;;;;;;;5062118;28;20053;-64
2022/04/29 11:49:43;;;;;;;2.63;0.73;;;;;;;;;;5061520;28;20300;-66
2022/04/29 11:52:31;;;;;;;4.57;0.55;;;;;;;;;;5046016;28;20577;-63
2022/04/29 11:54:57;;;;;;;4.15;0.57;;;;;;;;;;5027277;28;20034;-65
2022/04/29 11:57:24;;;;;;;6.70;1.73;;;;;;;;;;5061775;28;20041;-67
2022/04/29 11:59:50;;;;;;;6.00;0.50;;;;;;;;;;5059185;28;20136;-66
2022/04/29 12:02:18;;;;;;;4.65;0.50;;;;;;;;;;5030257;28;20525;-64
2022/04/29 12:04:53;;;;;;;3.72;0.40;;;;;;;;;;5029974;28;20045;-65
2022/04/29 12:07:20;;;;;;;3.67;0.40;;;;;;;;;;5043536;28;20542;-65
2022/04/29 12:09:46;;;;;;;3.10;0.40;;;;;;;;;;5061702;28;20557;-64
2022/04/29 12:12:28;;;;;;;3.45;0.40;;;;;;;;;;5030198;28;20046;-66
2022/04/29 12:14:58;;;;;;;4.00;0.40;;;;;;;;;;5030186;28;20057;-66
2022/04/29 12:17:32;;;;;;;1.80;0.40;;;;;;;;;;5061447;28;20045;-64
2022/04/29 12:19:58;;;;;;;4.75;0.80;;;;;;;;;;5061228;28;20120;-65
2022/04/29 12:22:31;;;;;;;2.53;0.50;;;;;;;;;;5061615;28;20041;-65
2022/04/29 12:24:57;;;;;;;3.95;0.40;;;;;;;;;;5028495;28;20576;-66
2022/04/29 12:27:31;;;;;;;2.30;0.35;;;;;;;;;;5029367;28;20099;-65
2022/04/29 12:35:29;;;;;;;4.22;0.40;;;;;;;;;;5025703;28;20407;-64
2022/04/29 12:37:55;;;;;;;3.75;0.55;;;;;;;;;;5061445;28;20091;-66
2022/04/29 12:40:28;;;;;;;2.65;0.30;;;;;;;;;;5027907;28;20041;-66
2022/04/29 12:43:08;;;;;;;3.22;0.40;;;;;;;;;;5029496;28;20049;-66
2022/04/29 12:45:34;;;;;;;4.63;0.40;;;;;;;;;;5029308;28;20049;-65
2022/04/29 12:48:11;;;;;;;5.13;0.50;;;;;;;;;;5061008;28;20064;-65
2022/04/29 12:50:39;;;;;;;2.70;0.40;;;;;;;;;;5028002;28;20150;-65
2022/04/29 12:53:05;;;;;;;2.40;0.30;;;;;;;;;;5027613;28;20034;-64
2022/04/29 12:55:39;;;;;;;2.42;0.40;;;;;;;;;;5043667;28;20061;-65
2022/04/29 12:58:06;;;;;;;2.95;0.32;;;;;;;;;;5029053;28;20092;-64
2022/04/29 13:00:33;;;;;;;4.30;0.47;;;;;;;;;;5027415;28;20038;-66
2022/04/29 13:03:00;;;;;;;2.47;0.30;;;;;;;;;;5060633;28;20527;-66
2022/04/29 13:05:27;;;;;;;2.97;0.30;;;;;;;;;;5060906;28;20116;-65
2022/04/29 13:07:53;;;;;;;2.17;0.40;;;;;;;;;;5060277;28;20059;-65
2022/04/29 13:10:19;;;;;;;4.05;0.60;;;;;;;;;;5060919;28;20443;-65
2022/04/29 13:12:46;;;;;;;3.40;0.88;;;;;;;;;;5060781;28;20506;-66
2022/04/29 13:15:12;;;;;;;3.88;0.73;;;;;;;;;;5060610;28;20096;-66
2022/04/29 13:17:38;;;;;;;2.83;0.35;;;;;;;;;;5029030;28;20116;-66
2022/04/29 13:20:05;;;;;;;3.25;0.50;;;;;;;;;;5027574;28;20060;-65
2022/04/29 13:22:31;;;;;;;2.55;0.52;;;;;;;;;;5059940;28;20042;-66
2022/04/29 13:25:01;;;;;;;3.42;0.52;;;;;;;;;;5028431;28;20049;-65
2022/04/29 13:27:29;;;;;;;6.97;0.60;;;;;;;;;;5028332;28;20041;-65
2022/04/29 13:29:55;;;;;;;3.70;0.95;;;;;;;;;;5028201;28;20041;-66
2022/04/29 13:32:22;;;;;;;4.65;1.30;;;;;;;;;;5060598;28;20522;-65
2022/04/29 13:34:51;;;;;;;4.45;0.85;;;;;;;;;;5028370;28;20126;-66
2022/04/29 13:37:19;;;;;;;4.90;0.60;;;;;;;;;;5028144;28;20037;-65
2022/04/29 13:39:46;;;;;;;4.03;0.77;;;;;;;;;;5026589;28;20045;-65
2022/04/29 13:42:13;;;;;;;5.18;0.70;;;;;;;;;;5060153;28;20045;-65
2022/04/29 13:44:40;;;;;;;8.10;1.70;;;;;;;;;;5059246;28;20107;-66
2022/04/29 13:47:06;;;;;;;10.48;2.60;;;;;;;;;;5027861;28;20057;-65
2022/04/29 13:49:32;;;;;;;7.63;2.17;;;;;;;;;;5059847;28;20533;-65
2022/04/29 13:53:07;;;;;;;10.65;3.17;;;;;;;;;;5060029;28;20128;-66
2022/04/29 13:54:44;;;;;;;8.07;2.50;;;;;;;;;;5026415;28;20060;-65
2022/04/29 13:57:10;;;;;;;7.10;2.45;;;;;;;;;;5027790;28;20043;-66
2022/04/29 13:59:36;;;;;;;9.40;1.92;;;;;;;;;;5059491;28;20029;-65
2022/04/29 14:02:03;;;;;;;6.20;2.22;;;;;;;;;;5027315;28;20080;-67
2022/04/29 14:04:29;;;;;;;6.15;2.15;;;;;;;;;;5027940;28;20053;-64
2022/04/29 14:06:55;;;;;;;7.65;1.95;;;;;;;;;;5028095;28;20080;-66
2022/04/29 14:09:21;;;;;;;7.75;2.28;;;;;;;;;;5028702;28;20033;-65
2022/04/29 14:11:47;;;;;;;7.88;1.60;;;;;;;;;;5027626;28;20052;-66
2022/04/29 14:14:13;;;;;;;9.75;2.10;;;;;;;;;;5060097;28;20087;-66
2022/04/29 14:16:40;;;;;;;8.20;1.48;;;;;;;;;;5024081;28;20048;-66
2022/04/29 14:19:06;;;;;;;8.10;1.73;;;;;;;;;;5063021;28;20037;-66
2022/04/29 14:21:32;;;;;;;6.68;1.77;;;;;;;;;;5046853;28;20048;-66
2022/04/29 14:23:58;;;;;;;6.32;1.63;;;;;;;;;;5063785;28;20076;-64
2022/04/29 14:26:24;;;;;;;5.05;1.52;;;;;;;;;;5030383;28;20099;-65
2022/04/29 14:28:50;;;;;;;7.07;1.58;;;;;;;;;;5031816;28;20531;-65
2022/04/29 14:31:16;;;;;;;6.25;1.20;;;;;;;;;;5063590;28;20065;-65
2022/04/29 14:33:43;;;;;;;4.55;1.40;;;;;;;;;;5063604;28;20041;-65
2022/04/29 14:36:11;;;;;;;6.30;1.25;;;;;;;;;;5031709;28;20045;-66
2022/04/29 14:38:37;;;;;;;5.43;1.10;;;;;;;;;;5030193;28;20530;-65
2022/04/29 14:41:03;;;;;;;6.38;1.10;;;;;;;;;;5031208;28;20458;-65
2022/04/29 14:43:30;;;;;;;10.23;1.25;;;;;;;;;;5046700;28;20183;-65
2022/04/29 14:45:56;;;;;;;3.20;0.80;;;;;;;;;;5063307;28;20041;-65
2022/04/29 14:48:22;;;;;;;5.90;0.70;;;;;;;;;;5029728;28;20053;-65
2022/04/29 14:50:51;;;;;;;3.67;0.77;;;;;;;;;;5046541;28;20077;-65
2022/04/29 14:53:17;;;;;;;5.35;1.45;;;;;;;;;;5030345;28;20048;-66
2022/04/29 14:55:43;;;;;;;4.72;1.42;;;;;;;;;;5031119;28;20068;-65
2022/04/29 14:58:09;;;;;;;3.30;0.28;;;;;;;;;;5046555;28;20033;-66
2022/04/29 15:00:35;;;;;;;5.72;0.30;;;;;;;;;;5063457;28;20046;-65
2022/04/29 15:03:01;;;;;;;3.47;0.30;;;;;;;;;;5063110;28;20103;-67
2022/04/29 15:05:28;;;;;;;7.72;0.32;;;;;;;;;;5030811;28;20033;-66
2022/04/29 15:07:54;;;;;;;5.10;0.35;;;;;;;;;;5058883;28;20049;-67
2022/04/29 15:15:50;;;;;;;3.00;0.50;;;;;;;;;;5026956;28;20128;-65
2022/04/29 15:18:22;;;;;;;3.45;0.73;;;;;;;;;;5031374;28;20037;-66
2022/04/29 15:20:48;;;;;;;3.35;0.73;;;;;;;;;;5029785;28;20045;-65
2022/04/29 15:23:15;;;;;;;2.78;0.45;;;;;;;;;;5029307;28;20131;-64
2022/04/29 15:25:41;;;;;;;4.32;0.50;;;;;;;;;;5030023;28;20040;-66
2022/04/29 15:28:07;;;;;;;3.65;0.57;;;;;;;;;;5061647;28;20069;-65